createdAt,value
2023-03-29T00:00:34.022Z,25.59
2023-03-29T00:01:36.029Z,25.59
2023-03-29T00:02:34.057Z,25.59
2023-03-29T00:03:34.136Z,25.59
2023-03-29T00:04:34.183Z,25.61
2023-03-29T00:05:34.056Z,25.59
2023-03-29T00:06:34.054Z,25.58
2023-03-29T00:07:34.044Z,25.59
2023-03-29T00:08:34.095Z,25.58
2023-03-29T00:09:34.033Z,25.59
2023-03-29T00:10:34.104Z,25.61
2023-03-29T00:11:34.062Z,25.61
2023-03-29T00:12:34.055Z,25.61
2023-03-29T00:13:34.052Z,25.62
2023-03-29T00:14:34.038Z,25.58
2023-03-29T00:15:34.037Z,25.59
2023-03-29T00:16:34.083Z,25.58
2023-03-29T00:17:34.101Z,25.58
2023-03-29T00:18:34.022Z,25.59
2023-03-29T00:19:34.037Z,25.59
2023-03-29T00:20:34.030Z,25.61
2023-03-29T00:21:34.055Z,25.59
2023-03-29T00:22:34.066Z,25.58
2023-03-29T00:23:34.038Z,25.58
2023-03-29T00:24:34.050Z,25.61
2023-03-29T00:25:34.062Z,25.58
2023-03-29T00:26:34.071Z,25.58
2023-03-29T00:27:34.051Z,25.59
2023-03-29T00:28:34.034Z,25.58
2023-03-29T00:29:34.054Z,25.59
2023-03-29T00:30:34.026Z,25.59
2023-03-29T00:31:34.079Z,25.58
2023-03-29T00:32:34.149Z,25.59
2023-03-29T00:33:34.032Z,25.59
2023-03-29T00:34:34.032Z,25.57
2023-03-29T00:35:34.074Z,25.58
2023-03-29T00:36:34.022Z,25.58
2023-03-29T00:37:34.111Z,25.57
2023-03-29T00:38:34.013Z,25.57
2023-03-29T00:39:34.014Z,25.59
2023-03-29T00:40:34.018Z,25.58
2023-03-29T00:41:34.011Z,25.58
2023-03-29T00:42:33.993Z,25.58
2023-03-29T00:43:33.998Z,25.57
2023-03-29T00:44:34.009Z,25.59
2023-03-29T00:45:33.995Z,25.58
2023-03-29T00:46:34.044Z,25.58
2023-03-29T00:47:34.095Z,25.58
2023-03-29T00:48:33.997Z,25.57
2023-03-29T00:49:33.989Z,25.58
2023-03-29T00:50:34.137Z,25.57
2023-03-29T00:51:33.972Z,25.57
2023-03-29T00:52:33.970Z,25.58
2023-03-29T00:53:33.951Z,25.57
2023-03-29T00:54:33.951Z,25.57
2023-03-29T00:55:33.950Z,25.57
2023-03-29T00:56:33.968Z,25.55
2023-03-29T00:57:33.991Z,25.57
2023-03-29T00:58:33.941Z,25.53
2023-03-29T00:59:33.945Z,25.58
2023-03-29T01:00:33.948Z,25.58
2023-03-29T01:01:34.094Z,25.57
2023-03-29T01:02:33.965Z,25.57
2023-03-29T01:03:33.953Z,25.55
2023-03-29T01:04:33.964Z,25.55
2023-03-29T01:05:33.965Z,25.57
2023-03-29T01:06:34.008Z,25.55
2023-03-29T01:07:33.908Z,25.55
2023-03-29T01:08:33.904Z,25.58
2023-03-29T01:09:33.903Z,25.57
2023-03-29T01:10:33.911Z,25.57
2023-03-29T01:11:33.897Z,25.57
2023-03-29T01:12:33.890Z,25.57
2023-03-29T01:13:33.891Z,25.55
2023-03-29T01:14:33.899Z,25.55
2023-03-29T01:15:33.875Z,25.57
2023-03-29T01:16:33.915Z,25.57
2023-03-29T01:17:33.924Z,25.53
2023-03-29T01:18:33.869Z,25.58
2023-03-29T01:19:33.889Z,25.52
2023-03-29T01:20:33.876Z,25.57
2023-03-29T01:21:33.877Z,25.53
2023-03-29T01:22:33.891Z,25.53
2023-03-29T01:23:33.842Z,25.53
2023-03-29T01:24:33.835Z,25.55
2023-03-29T01:25:33.839Z,25.53
2023-03-29T01:26:33.849Z,25.53
2023-03-29T01:27:33.838Z,25.55
2023-03-29T01:28:33.858Z,25.53
2023-03-29T01:29:33.829Z,25.55
2023-03-29T01:30:33.816Z,25.55
2023-03-29T01:31:33.875Z,25.55
2023-03-29T01:32:33.853Z,25.55
2023-03-29T01:33:33.809Z,25.55
2023-03-29T01:34:33.808Z,25.57
2023-03-29T01:35:33.833Z,25.53
2023-03-29T01:36:33.814Z,25.57
2023-03-29T01:37:33.815Z,25.53
2023-03-29T01:38:33.801Z,25.57
2023-03-29T01:39:33.784Z,25.55
2023-03-29T01:40:33.788Z,25.55
2023-03-29T01:41:33.793Z,25.57
2023-03-29T01:42:33.780Z,25.52
2023-03-29T01:43:33.781Z,25.55
2023-03-29T01:44:33.775Z,25.55
2023-03-29T01:45:33.787Z,25.53
2023-03-29T01:46:33.879Z,25.53
2023-03-29T01:47:33.828Z,25.53
2023-03-29T01:48:33.780Z,25.51
2023-03-29T01:49:33.778Z,25.53
2023-03-29T01:50:33.777Z,25.53
2023-03-29T01:51:33.766Z,25.53
2023-03-29T01:52:33.783Z,25.53
2023-03-29T01:53:33.781Z,25.53
2023-03-29T01:54:33.788Z,25.55
2023-03-29T01:55:33.778Z,25.53
2023-03-29T01:56:33.772Z,25.57
2023-03-29T01:57:33.783Z,25.53
2023-03-29T01:58:33.811Z,25.52
2023-03-29T01:59:33.779Z,25.53
2023-03-29T02:00:33.784Z,25.53
2023-03-29T02:01:33.805Z,25.53
2023-03-29T02:02:33.838Z,25.55
2023-03-29T02:03:33.899Z,25.52
2023-03-29T02:04:33.745Z,25.53
2023-03-29T02:05:33.779Z,25.53
2023-03-29T02:06:33.764Z,25.53
2023-03-29T02:07:33.736Z,25.53
2023-03-29T02:08:33.748Z,25.53
2023-03-29T02:09:33.745Z,25.52
2023-03-29T02:10:33.742Z,25.55
2023-03-29T02:11:33.737Z,25.53
2023-03-29T02:12:33.748Z,25.52
2023-03-29T02:13:33.740Z,25.55
2023-03-29T02:14:33.744Z,25.52
2023-03-29T02:15:33.817Z,25.55
2023-03-29T02:16:33.723Z,25.55
2023-03-29T02:17:33.741Z,25.52
2023-03-29T02:18:33.709Z,25.53
2023-03-29T02:19:33.711Z,25.52
2023-03-29T02:20:33.712Z,25.53
2023-03-29T02:21:33.724Z,25.51
2023-03-29T02:22:33.725Z,25.51
2023-03-29T02:23:33.718Z,25.52
2023-03-29T02:24:33.717Z,25.52
2023-03-29T02:25:33.721Z,25.52
2023-03-29T02:26:33.715Z,25.55
2023-03-29T02:27:33.696Z,25.52
2023-03-29T02:28:33.738Z,25.53
2023-03-29T02:29:33.712Z,25.52
2023-03-29T02:30:33.703Z,25.53
2023-03-29T02:31:33.737Z,25.52
2023-03-29T02:32:33.719Z,25.51
2023-03-29T02:33:33.694Z,25.52
2023-03-29T02:34:33.694Z,25.52
2023-03-29T02:35:33.682Z,25.53
2023-03-29T02:36:33.678Z,25.53
2023-03-29T02:37:33.726Z,25.57
2023-03-29T02:38:33.669Z,25.53
2023-03-29T02:39:33.671Z,25.51
2023-03-29T02:40:33.677Z,25.53
2023-03-29T02:41:33.656Z,25.55
2023-03-29T02:42:33.660Z,25.52
2023-03-29T02:43:33.667Z,25.52
2023-03-29T02:44:33.641Z,25.55
2023-03-29T02:45:33.649Z,25.55
2023-03-29T02:46:33.653Z,25.52
2023-03-29T02:47:33.668Z,25.52
2023-03-29T02:48:33.652Z,25.55
2023-03-29T02:49:33.658Z,25.52
2023-03-29T02:50:33.676Z,25.53
2023-03-29T02:51:33.639Z,25.52
2023-03-29T02:52:33.659Z,25.52
2023-03-29T02:53:33.646Z,25.53
2023-03-29T02:54:33.638Z,25.51
2023-03-29T02:55:33.640Z,25.55
2023-03-29T02:56:33.624Z,25.53
2023-03-29T02:57:33.630Z,25.52
2023-03-29T02:58:33.643Z,25.52
2023-03-29T02:59:33.637Z,25.49
2023-03-29T03:00:33.640Z,25.53
2023-03-29T03:01:33.665Z,25.53
2023-03-29T03:02:33.673Z,25.51
2023-03-29T03:03:33.726Z,25.53
2023-03-29T03:04:33.591Z,25.53
2023-03-29T03:05:33.623Z,25.51
2023-03-29T03:06:33.624Z,25.51
2023-03-29T03:07:33.622Z,25.51
2023-03-29T03:08:33.606Z,25.52
2023-03-29T03:09:33.596Z,25.52
2023-03-29T03:10:33.590Z,25.52
2023-03-29T03:11:33.615Z,25.53
2023-03-29T03:12:33.591Z,25.53
2023-03-29T03:13:33.600Z,25.52
2023-03-29T03:14:33.586Z,25.52
2023-03-29T03:15:33.584Z,25.51
2023-03-29T03:16:33.652Z,25.49
2023-03-29T03:17:33.641Z,25.53
2023-03-29T03:18:33.586Z,25.53
2023-03-29T03:19:33.566Z,25.53
2023-03-29T03:20:33.623Z,25.55
2023-03-29T03:21:33.603Z,25.52
2023-03-29T03:22:33.560Z,25.53
2023-03-29T03:23:33.551Z,25.52
2023-03-29T03:24:33.546Z,25.53
2023-03-29T03:25:33.553Z,25.52
2023-03-29T03:26:33.581Z,25.52
2023-03-29T03:27:33.542Z,25.53
2023-03-29T03:28:33.562Z,25.52
2023-03-29T03:29:33.563Z,25.53
2023-03-29T03:30:33.543Z,25.52
2023-03-29T03:31:33.620Z,25.55
2023-03-29T03:32:33.581Z,25.53
2023-03-29T03:33:33.561Z,25.51
2023-03-29T03:34:33.537Z,25.52
2023-03-29T03:35:33.566Z,25.53
2023-03-29T03:36:33.522Z,25.52
2023-03-29T03:37:33.543Z,25.55
2023-03-29T03:38:33.536Z,25.52
2023-03-29T03:39:33.563Z,25.51
2023-03-29T03:40:33.563Z,25.52
2023-03-29T03:41:33.531Z,25.52
2023-03-29T03:42:33.534Z,25.52
2023-03-29T03:43:33.510Z,25.51
2023-03-29T03:44:33.505Z,25.53
2023-03-29T03:45:33.573Z,25.53
2023-03-29T03:46:33.505Z,25.52
2023-03-29T03:47:33.524Z,25.49
2023-03-29T03:48:33.497Z,25.52
2023-03-29T03:49:33.494Z,25.51
2023-03-29T03:50:33.480Z,25.51
2023-03-29T03:51:33.501Z,25.53
2023-03-29T03:52:33.496Z,25.51
2023-03-29T03:53:33.485Z,25.53
2023-03-29T03:54:33.473Z,25.52
2023-03-29T03:55:33.463Z,25.53
2023-03-29T03:56:33.490Z,25.51
2023-03-29T03:57:33.470Z,25.52
2023-03-29T03:58:33.468Z,25.51
2023-03-29T03:59:33.470Z,25.51
2023-03-29T04:00:33.484Z,25.51
2023-03-29T04:01:33.467Z,25.49
2023-03-29T04:02:33.628Z,25.55
2023-03-29T04:03:33.524Z,25.52
2023-03-29T04:04:33.509Z,25.52
2023-03-29T04:05:33.485Z,25.52
2023-03-29T04:06:33.474Z,25.49
2023-03-29T04:07:33.472Z,25.51
2023-03-29T04:08:33.468Z,25.51
2023-03-29T04:09:33.516Z,25.52
2023-03-29T04:10:33.458Z,25.51
2023-03-29T04:11:33.477Z,25.51
2023-03-29T04:12:33.457Z,25.49
2023-03-29T04:13:33.465Z,25.53
2023-03-29T04:14:33.455Z,25.53
2023-03-29T04:15:33.483Z,25.52
2023-03-29T04:16:33.458Z,25.51
2023-03-29T04:17:33.610Z,25.52
2023-03-29T04:18:33.580Z,25.52
2023-03-29T04:19:33.470Z,25.53
2023-03-29T04:20:33.468Z,25.52
2023-03-29T04:21:33.460Z,25.48
2023-03-29T04:22:33.446Z,25.51
2023-03-29T04:23:33.446Z,25.51
2023-03-29T04:24:33.454Z,25.49
2023-03-29T04:25:33.462Z,25.51
2023-03-29T04:26:33.435Z,25.51
2023-03-29T04:27:33.446Z,25.51
2023-03-29T04:28:33.453Z,25.51
2023-03-29T04:29:33.533Z,25.51
2023-03-29T04:30:33.423Z,25.51
2023-03-29T04:31:33.463Z,25.51
2023-03-29T04:32:33.490Z,25.52
2023-03-29T04:33:33.477Z,25.49
2023-03-29T04:34:33.450Z,25.51
2023-03-29T04:35:33.606Z,25.51
2023-03-29T04:36:33.440Z,25.49
2023-03-29T04:37:33.465Z,25.49
2023-03-29T04:38:33.476Z,25.49
2023-03-29T04:39:33.455Z,25.49
2023-03-29T04:40:33.470Z,25.49
2023-03-29T04:41:33.448Z,25.51
2023-03-29T04:42:33.436Z,25.48
2023-03-29T04:43:33.457Z,25.51
2023-03-29T04:44:33.511Z,25.51
2023-03-29T04:45:33.454Z,25.49
2023-03-29T04:46:33.536Z,25.49
2023-03-29T04:47:33.486Z,25.52
2023-03-29T04:48:33.456Z,25.51
2023-03-29T04:49:33.473Z,25.51
2023-03-29T04:50:33.466Z,25.49
2023-03-29T04:51:33.503Z,25.51
2023-03-29T04:52:33.544Z,25.52
2023-03-29T04:53:33.528Z,25.51
2023-03-29T04:54:33.547Z,25.49
2023-03-29T04:55:33.530Z,25.51
2023-03-29T04:56:33.541Z,25.52
2023-03-29T04:57:33.579Z,25.48
2023-03-29T04:58:33.578Z,25.48
2023-03-29T04:59:33.585Z,25.51
2023-03-29T05:00:33.614Z,25.52
2023-03-29T05:01:33.632Z,25.51
2023-03-29T05:02:33.660Z,25.49
2023-03-29T05:03:33.646Z,25.51
2023-03-29T05:04:33.656Z,25.51
2023-03-29T05:05:33.656Z,25.49
2023-03-29T05:06:33.666Z,25.52
2023-03-29T05:07:33.639Z,25.48
2023-03-29T05:08:33.675Z,25.49
2023-03-29T05:09:35.523Z,25.49
2023-03-29T05:10:33.672Z,25.51
2023-03-29T05:11:33.703Z,25.51
2023-03-29T05:12:33.697Z,25.52
2023-03-29T05:13:33.705Z,25.51
2023-03-29T05:14:33.719Z,25.51
2023-03-29T05:15:33.704Z,25.49
2023-03-29T05:16:33.764Z,25.51
2023-03-29T05:17:33.746Z,25.49
2023-03-29T05:18:33.743Z,25.51
2023-03-29T05:19:33.714Z,25.49
2023-03-29T05:20:33.741Z,25.49
2023-03-29T05:21:33.731Z,25.55
2023-03-29T05:22:33.739Z,25.53
2023-03-29T05:23:33.743Z,25.52
2023-03-29T05:24:33.726Z,25.51
2023-03-29T05:25:33.992Z,25.51
2023-03-29T05:26:33.734Z,25.52
2023-03-29T05:27:33.744Z,25.55
2023-03-29T05:28:33.818Z,25.55
2023-03-29T05:29:33.759Z,25.57
2023-03-29T05:30:33.794Z,25.57
2023-03-29T05:31:33.793Z,25.55
2023-03-29T05:32:33.810Z,25.59
2023-03-29T05:33:33.834Z,25.58
2023-03-29T05:34:33.808Z,25.62
2023-03-29T05:35:33.898Z,25.61
2023-03-29T05:36:33.846Z,25.64
2023-03-29T05:37:33.855Z,25.68
2023-03-29T05:38:33.946Z,25.70
2023-03-29T05:39:36.406Z,25.72
2023-03-29T05:40:33.926Z,25.73
2023-03-29T05:41:33.931Z,25.76
2023-03-29T05:42:33.930Z,25.83
2023-03-29T05:43:33.907Z,25.85
2023-03-29T05:44:33.903Z,25.88
2023-03-29T05:45:33.951Z,25.90
2023-03-29T05:46:33.901Z,25.90
2023-03-29T05:47:33.885Z,25.96
2023-03-29T05:48:33.862Z,25.99
2023-03-29T05:49:33.849Z,26.00
2023-03-29T05:50:33.872Z,26.01
2023-03-29T05:51:33.859Z,26.01
2023-03-29T05:52:33.832Z,26.03
2023-03-29T05:53:33.838Z,26.00
2023-03-29T05:54:33.820Z,25.99
2023-03-29T05:55:33.846Z,25.96
2023-03-29T05:56:33.827Z,25.92
2023-03-29T05:57:33.811Z,25.82
2023-03-29T05:58:33.800Z,25.78
2023-03-29T05:59:33.821Z,25.70
2023-03-29T06:00:33.813Z,25.66
2023-03-29T06:01:33.786Z,25.61
2023-03-29T06:02:33.886Z,25.58
2023-03-29T06:03:33.975Z,25.57
2023-03-29T06:04:34.007Z,25.58
2023-03-29T06:05:33.792Z,25.59
2023-03-29T06:06:33.745Z,25.62
2023-03-29T06:07:33.745Z,25.65
2023-03-29T06:08:33.797Z,25.69
2023-03-29T06:09:33.717Z,25.70
2023-03-29T06:10:33.787Z,25.75
2023-03-29T06:11:33.726Z,25.79
2023-03-29T06:12:33.715Z,25.82
2023-03-29T06:13:33.694Z,25.86
2023-03-29T06:14:33.697Z,25.90
2023-03-29T06:15:33.702Z,25.93
2023-03-29T06:16:33.756Z,25.97
2023-03-29T06:17:33.798Z,25.96
2023-03-29T06:18:33.693Z,26.00
2023-03-29T06:19:33.676Z,26.03
2023-03-29T06:20:33.676Z,26.09
2023-03-29T06:21:33.732Z,26.06
2023-03-29T06:22:33.771Z,26.09
2023-03-29T06:23:33.795Z,26.09
2023-03-29T06:24:33.857Z,26.15
2023-03-29T06:25:33.891Z,26.13
2023-03-29T06:26:33.952Z,26.19
2023-03-29T06:27:33.969Z,26.19
2023-03-29T06:28:34.006Z,26.19
2023-03-29T06:29:34.026Z,26.21
2023-03-29T06:30:34.073Z,26.24
2023-03-29T06:31:34.629Z,26.26
2023-03-29T06:32:34.142Z,26.24
2023-03-29T06:33:34.232Z,26.26
2023-03-29T06:34:35.518Z,26.26
2023-03-29T06:35:34.303Z,26.27
2023-03-29T06:36:34.314Z,26.30
2023-03-29T06:37:34.337Z,26.34
2023-03-29T06:38:34.359Z,26.34
2023-03-29T06:39:34.390Z,26.36
2023-03-29T06:40:34.397Z,26.34
2023-03-29T06:41:34.409Z,26.37
2023-03-29T06:42:34.452Z,26.38
2023-03-29T06:43:34.464Z,26.41
2023-03-29T06:44:34.486Z,26.38
2023-03-29T06:45:34.512Z,26.44
2023-03-29T06:46:35.351Z,26.44
2023-03-29T06:47:35.051Z,26.47
2023-03-29T06:48:34.605Z,26.47
2023-03-29T06:49:34.630Z,26.51
2023-03-29T06:50:34.642Z,26.50
2023-03-29T06:51:35.431Z,26.51
2023-03-29T06:52:35.023Z,26.52
2023-03-29T06:53:34.662Z,26.57
2023-03-29T06:54:34.660Z,26.55
2023-03-29T06:55:34.681Z,26.57
2023-03-29T06:56:34.680Z,26.58
2023-03-29T06:57:34.704Z,26.61
2023-03-29T06:58:34.721Z,26.59
2023-03-29T06:59:35.021Z,26.64
2023-03-29T07:00:34.726Z,26.62
2023-03-29T07:01:34.920Z,26.64
2023-03-29T07:02:35.175Z,26.64
2023-03-29T07:03:34.787Z,26.62
2023-03-29T07:04:34.818Z,26.62
2023-03-29T07:05:34.781Z,26.65
2023-03-29T07:06:34.808Z,26.62
2023-03-29T07:07:35.036Z,26.65
2023-03-29T07:08:34.842Z,26.61
2023-03-29T07:09:34.840Z,26.64
2023-03-29T07:10:34.861Z,26.64
2023-03-29T07:11:34.893Z,26.62
2023-03-29T07:12:34.883Z,26.65
2023-03-29T07:13:34.965Z,26.67
2023-03-29T07:14:34.928Z,26.67
2023-03-29T07:15:34.933Z,26.67
2023-03-29T07:16:35.004Z,26.68
2023-03-29T07:17:35.102Z,26.70
2023-03-29T07:18:34.972Z,26.70
2023-03-29T07:19:34.995Z,26.71
2023-03-29T07:20:34.991Z,26.72
2023-03-29T07:21:36.692Z,26.75
2023-03-29T07:22:34.977Z,26.75
2023-03-29T07:23:34.967Z,26.77
2023-03-29T07:24:34.982Z,26.77
2023-03-29T07:25:34.964Z,26.79
2023-03-29T07:26:34.947Z,26.74
2023-03-29T07:27:35.049Z,26.77
2023-03-29T07:28:35.039Z,26.75
2023-03-29T07:29:34.926Z,26.77
2023-03-29T07:30:34.930Z,26.77
2023-03-29T07:31:34.913Z,26.77
2023-03-29T07:32:35.009Z,26.78
2023-03-29T07:33:35.157Z,26.79
2023-03-29T07:34:34.909Z,26.79
2023-03-29T07:35:35.102Z,26.78
2023-03-29T07:36:34.883Z,26.78
2023-03-29T07:37:35.055Z,26.79
2023-03-29T07:38:34.869Z,26.78
2023-03-29T07:39:34.888Z,26.78
2023-03-29T07:40:34.863Z,26.78
2023-03-29T07:41:34.863Z,26.79
2023-03-29T07:42:34.846Z,26.79
2023-03-29T07:43:34.831Z,26.77
2023-03-29T07:44:34.820Z,26.78
2023-03-29T07:45:34.835Z,26.78
2023-03-29T07:46:34.837Z,26.81
2023-03-29T07:47:34.901Z,26.81
2023-03-29T07:48:34.791Z,26.78
2023-03-29T07:49:35.047Z,26.79
2023-03-29T07:50:34.813Z,26.79
2023-03-29T07:51:34.773Z,26.78
2023-03-29T07:52:34.766Z,26.78
2023-03-29T07:53:34.753Z,26.77
2023-03-29T07:54:34.795Z,26.72
2023-03-29T07:55:34.769Z,26.72
2023-03-29T07:56:34.751Z,26.72
2023-03-29T07:57:34.755Z,26.71
2023-03-29T07:58:34.763Z,26.71
2023-03-29T07:59:35.049Z,26.68
2023-03-29T08:00:34.812Z,26.68
2023-03-29T08:01:34.724Z,26.70
2023-03-29T08:02:34.706Z,26.70
2023-03-29T08:03:34.761Z,26.70
2023-03-29T08:04:34.781Z,26.70
2023-03-29T08:05:41.296Z,26.71
2023-03-29T08:06:35.660Z,26.71
2023-03-29T08:07:34.668Z,26.70
2023-03-29T08:08:34.674Z,26.71
2023-03-29T08:09:34.646Z,26.70
2023-03-29T08:10:34.661Z,26.64
2023-03-29T08:11:34.649Z,26.65
2023-03-29T08:12:34.652Z,26.62
2023-03-29T08:13:34.624Z,26.59
2023-03-29T08:14:34.614Z,26.61
2023-03-29T08:15:35.072Z,26.61
2023-03-29T08:16:34.665Z,26.61
2023-03-29T08:17:34.649Z,26.64
2023-03-29T08:18:35.097Z,26.62
2023-03-29T08:19:34.594Z,26.62
2023-03-29T08:20:35.052Z,26.62
2023-03-29T08:21:34.572Z,26.64
2023-03-29T08:22:34.584Z,26.65
2023-03-29T08:23:34.566Z,26.62
2023-03-29T08:24:34.590Z,26.65
2023-03-29T08:25:34.552Z,26.67
2023-03-29T08:26:34.544Z,26.71
2023-03-29T08:27:34.566Z,26.70
2023-03-29T08:28:34.589Z,26.72
2023-03-29T08:29:34.649Z,26.72
2023-03-29T08:30:34.623Z,26.72
2023-03-29T08:31:34.819Z,26.74
2023-03-29T08:32:34.662Z,26.77
2023-03-29T08:33:34.655Z,26.77
2023-03-29T08:34:34.661Z,26.77
2023-03-29T08:35:34.791Z,26.81
2023-03-29T08:36:34.688Z,26.79
2023-03-29T08:37:34.672Z,26.79
2023-03-29T08:38:34.709Z,26.82
2023-03-29T08:39:34.705Z,26.82
2023-03-29T08:40:34.751Z,26.85
2023-03-29T08:41:34.718Z,26.88
2023-03-29T08:42:34.734Z,26.89
2023-03-29T08:43:35.061Z,26.92
2023-03-29T08:44:34.697Z,26.93
2023-03-29T08:45:34.717Z,26.93
2023-03-29T08:46:35.661Z,26.98
2023-03-29T08:47:34.723Z,26.96
2023-03-29T08:48:34.715Z,26.98
2023-03-29T08:49:34.731Z,26.98
2023-03-29T08:50:34.729Z,26.99
2023-03-29T08:51:34.736Z,26.96
2023-03-29T08:52:34.752Z,26.99
2023-03-29T08:53:34.811Z,26.99
2023-03-29T08:54:34.796Z,27.02
2023-03-29T08:55:34.748Z,27.01
2023-03-29T08:56:34.775Z,27.03
2023-03-29T08:57:34.785Z,27.01
2023-03-29T08:58:34.865Z,27.03
2023-03-29T08:59:34.892Z,27.06
2023-03-29T09:00:34.841Z,27.03
2023-03-29T09:01:35.018Z,27.05
2023-03-29T09:02:35.056Z,27.06
2023-03-29T09:03:35.030Z,27.06
2023-03-29T09:04:35.023Z,27.10
2023-03-29T09:05:35.064Z,27.12
2023-03-29T09:06:35.139Z,27.12
2023-03-29T09:07:35.153Z,27.12
2023-03-29T09:08:35.165Z,27.13
2023-03-29T09:09:35.262Z,27.16
2023-03-29T09:10:35.257Z,27.19
2023-03-29T09:11:35.328Z,27.17
2023-03-29T09:12:36.605Z,27.20
2023-03-29T09:13:35.483Z,27.20
2023-03-29T09:14:35.528Z,27.20
2023-03-29T09:15:35.562Z,27.20
2023-03-29T09:16:35.643Z,27.19
2023-03-29T09:17:36.113Z,27.22
2023-03-29T09:18:35.747Z,27.23
2023-03-29T09:19:35.798Z,27.22
2023-03-29T09:20:35.848Z,27.26
2023-03-29T09:21:35.924Z,27.26
2023-03-29T09:22:35.966Z,27.28
2023-03-29T09:23:36.017Z,27.29
2023-03-29T09:24:36.079Z,27.30
2023-03-29T09:25:41.075Z,27.33
2023-03-29T09:26:37.154Z,27.34
2023-03-29T09:27:36.636Z,27.37
2023-03-29T09:28:36.105Z,27.36
2023-03-29T09:29:36.131Z,27.32
2023-03-29T09:30:36.091Z,27.29
2023-03-29T09:31:36.146Z,27.23
2023-03-29T09:32:36.190Z,27.20
2023-03-29T09:33:36.081Z,27.10
2023-03-29T09:34:36.066Z,27.06
2023-03-29T09:35:36.142Z,27.03
2023-03-29T09:36:36.043Z,26.99
2023-03-29T09:37:36.062Z,27.03
2023-03-29T09:38:36.039Z,27.03
2023-03-29T09:39:36.024Z,27.07
2023-03-29T09:40:36.035Z,27.09
2023-03-29T09:41:36.020Z,27.13
2023-03-29T09:42:36.004Z,27.16
2023-03-29T09:43:35.999Z,27.19
2023-03-29T09:44:36.076Z,27.17
2023-03-29T09:45:35.996Z,27.22
2023-03-29T09:46:35.997Z,27.23
2023-03-29T09:47:36.055Z,27.28
2023-03-29T09:48:36.108Z,27.26
2023-03-29T09:49:36.129Z,27.32
2023-03-29T09:50:36.180Z,27.36
2023-03-29T09:51:36.230Z,27.39
2023-03-29T09:52:36.289Z,27.44
2023-03-29T09:53:36.343Z,27.47
2023-03-29T09:54:36.400Z,27.49
2023-03-29T09:55:36.451Z,27.51
2023-03-29T09:56:36.518Z,27.54
2023-03-29T09:57:36.591Z,27.54
2023-03-29T09:58:36.629Z,27.60
2023-03-29T09:59:36.679Z,27.60
2023-03-29T10:00:36.800Z,27.67
2023-03-29T10:01:36.791Z,27.65
2023-03-29T10:02:36.845Z,27.70
2023-03-29T10:03:37.137Z,27.71
2023-03-29T10:04:37.181Z,27.72
2023-03-29T10:05:36.971Z,27.72
2023-03-29T10:06:37.010Z,27.77
2023-03-29T10:07:37.055Z,27.77
2023-03-29T10:08:37.105Z,27.80
2023-03-29T10:09:37.609Z,27.81
2023-03-29T10:10:37.186Z,27.81
2023-03-29T10:11:37.245Z,27.81
2023-03-29T10:12:37.251Z,27.83
2023-03-29T10:13:37.309Z,27.84
2023-03-29T10:14:37.362Z,27.83
2023-03-29T10:15:37.412Z,27.84
2023-03-29T10:16:37.478Z,27.84
2023-03-29T10:17:37.553Z,27.84
2023-03-29T10:18:37.553Z,27.84
2023-03-29T10:19:38.123Z,27.83
2023-03-29T10:20:37.684Z,27.78
2023-03-29T10:21:37.731Z,27.72
2023-03-29T10:22:37.880Z,27.64
2023-03-29T10:23:37.820Z,27.62
2023-03-29T10:24:38.129Z,27.61
2023-03-29T10:25:39.215Z,27.61
2023-03-29T10:26:37.869Z,27.58
2023-03-29T10:27:37.852Z,27.60
2023-03-29T10:28:37.791Z,27.58
2023-03-29T10:29:37.825Z,27.61
2023-03-29T10:30:37.773Z,27.60
2023-03-29T10:31:37.805Z,27.61
2023-03-29T10:32:37.949Z,27.60
2023-03-29T10:33:37.788Z,27.58
2023-03-29T10:34:37.744Z,27.57
2023-03-29T10:35:37.820Z,27.57
2023-03-29T10:36:37.730Z,27.60
2023-03-29T10:37:37.745Z,27.57
2023-03-29T10:38:37.744Z,27.60
2023-03-29T10:39:37.744Z,27.58
2023-03-29T10:40:37.713Z,27.58
2023-03-29T10:41:37.701Z,27.57
2023-03-29T10:42:37.682Z,27.57
2023-03-29T10:43:37.705Z,27.60
2023-03-29T10:44:37.687Z,27.60
2023-03-29T10:45:37.665Z,27.60
2023-03-29T10:46:37.735Z,27.60
2023-03-29T10:47:37.664Z,27.60
2023-03-29T10:48:37.642Z,27.58
2023-03-29T10:49:37.657Z,27.61
2023-03-29T10:50:37.617Z,27.58
2023-03-29T10:51:37.617Z,27.60
2023-03-29T10:52:37.617Z,27.61
2023-03-29T10:53:37.638Z,27.61
2023-03-29T10:54:37.610Z,27.62
2023-03-29T10:55:37.628Z,27.58
2023-03-29T10:56:37.620Z,27.58
2023-03-29T10:57:37.843Z,27.57
2023-03-29T10:58:37.593Z,27.56
2023-03-29T10:59:37.680Z,27.57
2023-03-29T11:00:37.642Z,27.58
2023-03-29T11:01:37.813Z,27.57
2023-03-29T11:02:37.836Z,27.56
2023-03-29T11:03:37.994Z,27.57
2023-03-29T11:04:37.855Z,27.57
2023-03-29T11:05:37.921Z,27.57
2023-03-29T11:06:38.018Z,27.58
2023-03-29T11:07:38.071Z,27.60
2023-03-29T11:08:38.082Z,27.62
2023-03-29T11:09:38.165Z,27.61
2023-03-29T11:10:38.224Z,27.65
2023-03-29T11:11:38.295Z,27.67
2023-03-29T11:12:38.326Z,27.68
2023-03-29T11:13:38.372Z,27.70
2023-03-29T11:14:38.431Z,27.68
2023-03-29T11:15:38.747Z,27.71
2023-03-29T11:16:38.517Z,27.74
2023-03-29T11:17:38.632Z,27.77
2023-03-29T11:18:38.624Z,27.75
2023-03-29T11:19:38.648Z,27.78
2023-03-29T11:20:38.722Z,27.80
2023-03-29T11:21:38.770Z,27.78
2023-03-29T11:22:38.816Z,27.81
2023-03-29T11:23:38.864Z,27.83
2023-03-29T11:24:38.917Z,27.84
2023-03-29T11:25:38.940Z,27.87
2023-03-29T11:26:38.990Z,27.84
2023-03-29T11:27:39.019Z,27.88
2023-03-29T11:28:39.075Z,27.87
2023-03-29T11:29:39.119Z,27.87
2023-03-29T11:30:39.168Z,27.87
2023-03-29T11:31:39.320Z,27.87
2023-03-29T11:32:39.244Z,27.91
2023-03-29T11:33:39.292Z,27.88
2023-03-29T11:34:39.327Z,27.91
2023-03-29T11:35:39.428Z,27.91
2023-03-29T11:36:39.438Z,27.92
2023-03-29T11:37:39.474Z,27.94
2023-03-29T11:38:39.504Z,27.92
2023-03-29T11:39:39.547Z,27.92
2023-03-29T11:40:39.586Z,27.94
2023-03-29T11:41:39.648Z,27.99
2023-03-29T11:42:39.657Z,27.95
2023-03-29T11:43:39.720Z,28.01
2023-03-29T11:44:39.725Z,28.01
2023-03-29T11:45:39.798Z,28.02
2023-03-29T11:46:39.853Z,28.06
2023-03-29T11:47:39.952Z,28.04
2023-03-29T11:48:39.883Z,28.05
2023-03-29T11:49:39.937Z,28.06
2023-03-29T11:50:39.937Z,28.04
2023-03-29T11:51:40.011Z,28.04
2023-03-29T11:52:40.098Z,28.02
2023-03-29T11:53:40.046Z,28.04
2023-03-29T11:54:40.631Z,28.04
2023-03-29T11:55:40.136Z,28.01
2023-03-29T11:56:40.225Z,28.01
2023-03-29T11:57:40.671Z,27.98
2023-03-29T11:58:40.215Z,27.99
2023-03-29T11:59:40.258Z,27.98
2023-03-29T12:00:40.287Z,27.98
2023-03-29T12:01:40.341Z,27.96
2023-03-29T12:02:40.882Z,27.94
2023-03-29T12:03:40.546Z,27.95
2023-03-29T12:04:40.428Z,27.95
2023-03-29T12:05:40.469Z,27.94
2023-03-29T12:06:40.488Z,27.92
2023-03-29T12:07:40.576Z,27.92
2023-03-29T12:08:40.583Z,27.92
2023-03-29T12:09:40.656Z,27.94
2023-03-29T12:10:40.670Z,27.92
2023-03-29T12:11:40.705Z,27.92
2023-03-29T12:12:41.172Z,27.91
2023-03-29T12:13:40.754Z,27.92
2023-03-29T12:14:40.813Z,27.92
2023-03-29T12:15:40.858Z,27.92
2023-03-29T12:16:41.011Z,27.92
2023-03-29T12:17:40.971Z,27.91
2023-03-29T12:18:41.008Z,27.91
2023-03-29T12:19:43.554Z,27.92
2023-03-29T12:20:40.999Z,27.91
2023-03-29T12:21:41.032Z,27.91
2023-03-29T12:22:40.997Z,27.91
2023-03-29T12:23:41.008Z,27.88
2023-03-29T12:24:40.971Z,27.89
2023-03-29T12:25:40.947Z,27.88
2023-03-29T12:26:40.990Z,27.89
2023-03-29T12:27:40.945Z,27.89
2023-03-29T12:28:40.980Z,27.88
2023-03-29T12:29:40.954Z,27.88
2023-03-29T12:30:40.945Z,27.87
2023-03-29T12:31:40.996Z,27.85
2023-03-29T12:32:40.998Z,27.84
2023-03-29T12:33:40.908Z,27.85
2023-03-29T12:34:40.885Z,27.88
2023-03-29T12:35:40.907Z,27.84
2023-03-29T12:36:40.888Z,27.85
2023-03-29T12:37:40.878Z,27.84
2023-03-29T12:38:40.850Z,27.81
2023-03-29T12:39:40.861Z,27.81
2023-03-29T12:40:40.836Z,27.81
2023-03-29T12:41:40.836Z,27.81
2023-03-29T12:42:40.814Z,27.81
2023-03-29T12:43:40.831Z,27.81
2023-03-29T12:44:40.808Z,27.83
2023-03-29T12:45:40.863Z,27.83
2023-03-29T12:46:41.269Z,27.83
2023-03-29T12:47:40.885Z,27.83
2023-03-29T12:48:40.780Z,27.84
2023-03-29T12:49:40.774Z,27.84
2023-03-29T12:50:40.753Z,27.84
2023-03-29T12:51:40.762Z,27.83
2023-03-29T12:52:40.744Z,27.83